Time;durP1;ratioP1;P1;durP2;ratioP2;P2;SDS_P1;SDS_P2;PMS_P1;PMS_P2;Temp;Humidity;BMP_temperature;BMP_pressure;BME280_temperature;BME280_humidity;BME280_pressure;Samples;Min_cycle;Max_cycle;Signal;HPM_P1;HPM_P2
2023/04/11 00:01:08;;;;;;;4.30;3.00;;;;;;;9.71;96.45;100157.70;106133;1257;62656;-68
2023/04/11 00:03:37;;;;;;;4.30;2.90;;;;;;;9.66;97.54;100141.52;105954;1258;62118;-69
2023/04/11 00:06:04;;;;;;;5.90;2.80;;;;;;;9.59;97.32;100126.12;106146;1254;62162;-67
2023/04/11 00:08:31;;;;;;;4.20;3.00;;;;;;;9.49;97.99;100121.86;106076;1257;62096;-66
2023/04/11 00:10:57;;;;;;;4.60;2.60;;;;;;;9.42;98.58;100130.83;106265;1254;62145;-66
2023/04/11 00:13:25;;;;;;;5.20;2.70;;;;;;;9.34;99.12;100127.07;107052;1254;71269;-68
2023/04/11 00:15:54;;;;;;;5.80;2.90;;;;;;;9.29;99.31;100118.15;106033;1256;72635;-67
2023/04/11 00:18:21;;;;;;;4.30;2.70;;;;;;;9.27;98.98;100080.16;105979;1256;62095;-67
2023/04/11 00:20:48;;;;;;;5.10;2.60;;;;;;;9.24;99.10;100036.02;106059;1257;61940;-69
2023/04/11 00:23:15;;;;;;;4.30;2.50;;;;;;;9.21;99.34;99996.69;106185;1254;63174;-68
2023/04/11 00:25:41;;;;;;;4.10;2.40;;;;;;;9.17;99.61;99970.84;106024;1254;62059;-68
2023/04/11 00:28:09;;;;;;;5.10;2.80;;;;;;;9.16;99.34;99994.15;106301;1254;73376;-68
2023/04/11 00:30:37;;;;;;;4.90;2.50;;;;;;;9.13;99.43;99986.50;106278;1258;61970;-68
2023/04/11 00:33:06;;;;;;;4.90;2.50;;;;;;;9.11;99.39;99933.69;106522;1255;62169;-65
2023/04/11 00:35:34;;;;;;;3.70;2.30;;;;;;;9.10;99.11;99961.55;105826;1256;73998;-67
2023/04/11 00:38:03;;;;;;;4.80;2.70;;;;;;;9.07;99.63;100011.07;106151;1254;71055;-66
2023/04/11 00:40:30;;;;;;;4.50;2.80;;;;;;;9.05;99.70;100017.67;105904;1256;71169;-68
2023/04/11 00:42:57;;;;;;;4.70;2.50;;;;;;;9.02;99.84;100010.77;105803;1254;62445;-67
2023/04/11 00:45:24;;;;;;;4.40;2.50;;;;;;;8.99;99.88;100015.48;106540;1255;62111;-68
2023/04/11 00:47:51;;;;;;;4.20;2.40;;;;;;;8.98;99.81;100037.86;106093;1261;74459;-68
2023/04/11 00:50:20;;;;;;;5.30;2.40;;;;;;;8.96;99.75;100036.08;106484;1259;70303;-67
2023/04/11 00:52:49;;;;;;;3.60;2.30;;;;;;;8.95;99.82;100062.84;105983;1254;72050;-72
2023/04/11 00:55:16;;;;;;;7.00;2.40;;;;;;;8.94;99.96;100071.44;106079;1256;62173;-70
2023/04/11 00:57:43;;;;;;;3.60;2.30;;;;;;;8.93;99.90;100065.52;106047;1255;62142;-68
2023/04/11 01:00:11;;;;;;;4.00;2.40;;;;;;;8.92;100.00;100071.83;106111;1254;74013;-68
2023/04/11 01:02:41;;;;;;;3.60;2.50;;;;;;;8.92;100.00;100073.11;106224;1254;68678;-70
2023/04/11 01:05:11;;;;;;;4.10;2.60;;;;;;;8.92;100.00;100076.78;106720;1254;71632;-68
2023/04/11 01:07:41;;;;;;;3.90;2.90;;;;;;;8.93;100.00;100082.01;105938;1254;62173;-70
2023/04/11 01:10:09;;;;;;;5.70;3.00;;;;;;;8.92;100.00;100089.85;106703;1255;61994;-69
2023/04/11 01:12:37;;;;;;;5.40;3.00;;;;;;;8.92;100.00;100096.70;105981;1254;74463;-69
2023/04/11 01:15:05;;;;;;;4.80;2.70;;;;;;;8.94;100.00;100094.06;105991;1256;71519;-68
2023/04/11 01:17:32;;;;;;;4.60;2.60;;;;;;;8.93;100.00;100093.73;105890;1254;71122;-69
2023/04/11 01:20:00;;;;;;;4.70;2.20;;;;;;;8.93;100.00;100095.20;106131;1254;62095;-69
2023/04/11 01:22:28;;;;;;;3.80;2.10;;;;;;;8.93;100.00;100100.52;106227;1257;62028;-69
2023/04/11 01:24:55;;;;;;;3.50;2.00;;;;;;;8.94;100.00;100093.70;106006;1254;75691;-69
2023/04/11 01:27:24;;;;;;;3.70;1.90;;;;;;;8.94;99.86;100088.17;106360;1257;71042;-69
2023/04/11 01:29:51;;;;;;;2.90;1.70;;;;;;;8.95;99.27;100089.36;106364;1255;72679;-70
2023/04/11 01:32:17;;;;;;;3.10;1.90;;;;;;;8.94;98.79;100083.98;106229;1254;62160;-70
2023/04/11 01:34:47;;;;;;;4.10;1.80;;;;;;;8.94;98.37;100080.44;106021;1253;62052;-72
2023/04/11 01:37:14;;;;;;;3.80;1.80;;;;;;;8.93;98.52;100074.80;106096;1254;75281;-71
2023/04/11 01:39:40;;;;;;;3.90;1.90;;;;;;;8.91;98.56;100074.09;106607;1253;71178;-69
2023/04/11 01:42:08;;;;;;;3.70;1.90;;;;;;;8.90;98.16;100078.59;105969;1260;71214;-68
2023/04/11 01:44:36;;;;;;;4.10;1.80;;;;;;;8.88;98.17;100076.44;106215;1254;62667;-69
2023/04/11 01:47:03;;;;;;;3.70;1.80;;;;;;;8.87;98.03;100067.23;106063;1257;62040;-69
2023/04/11 01:49:30;;;;;;;3.60;1.80;;;;;;;8.86;98.06;100059.42;106448;1256;75761;-69
2023/04/11 01:51:56;;;;;;;3.90;1.50;;;;;;;8.83;98.11;100055.54;106213;1254;69669;-70
2023/04/11 01:54:23;;;;;;;2.90;1.50;;;;;;;8.82;97.56;100059.73;106082;1254;62426;-69
2023/04/11 01:56:51;;;;;;;3.70;1.50;;;;;;;8.78;97.37;100055.86;106124;1254;62146;-68
2023/04/11 01:59:18;;;;;;;2.70;1.40;;;;;;;8.77;96.82;100062.30;106966;1254;62103;-69
2023/04/11 02:01:45;;;;;;;2.30;1.20;;;;;;;8.77;96.25;100060.63;106145;1254;74340;-69
2023/04/11 02:04:12;;;;;;;3.20;1.20;;;;;;;8.75;95.10;100057.27;106046;1260;69728;-71
2023/04/11 02:06:39;;;;;;;3.90;1.40;;;;;;;8.74;94.63;100053.84;106774;1256;71495;-70
2023/04/11 02:09:06;;;;;;;3.60;1.00;;;;;;;8.76;94.39;100047.84;106133;1260;62523;-68
2023/04/11 02:11:33;;;;;;;2.50;1.10;;;;;;;8.76;94.10;100031.81;105867;1257;62971;-70
2023/04/11 02:14:01;;;;;;;3.10;1.10;;;;;;;8.75;93.27;100030.83;106141;1254;75410;-70
2023/04/11 02:16:29;;;;;;;2.80;1.00;;;;;;;8.76;93.44;100031.29;106641;1254;70808;-69
2023/04/11 02:18:56;;;;;;;2.00;1.00;;;;;;;8.74;93.22;100025.85;106106;1255;72379;-70
2023/04/11 02:21:23;;;;;;;3.20;1.10;;;;;;;8.72;92.44;100014.11;105974;1255;61997;-71
2023/04/11 02:23:50;;;;;;;3.60;0.90;;;;;;;8.70;92.54;100017.13;106137;1256;61987;-70
2023/04/11 02:26:16;;;;;;;2.30;1.00;;;;;;;8.70;92.12;100008.77;106894;1254;75180;-69
2023/04/11 02:28:43;;;;;;;1.80;0.80;;;;;;;8.68;91.77;99996.39;105860;1256;62258;-73
2023/04/11 02:31:10;;;;;;;2.70;0.90;;;;;;;8.67;91.46;100000.04;106249;1256;72991;-70
2023/04/11 02:33:37;;;;;;;1.80;0.90;;;;;;;8.67;91.54;100002.34;106410;1254;62259;-70
2023/04/11 02:36:04;;;;;;;1.70;0.80;;;;;;;8.66;90.82;99992.99;106677;1254;62473;-70
2023/04/11 02:38:31;;;;;;;2.60;0.70;;;;;;;8.67;90.58;99991.41;106089;1255;74418;-71
2023/04/11 02:40:59;;;;;;;1.80;0.80;;;;;;;8.66;90.23;99988.70;105994;1254;69708;-71
2023/04/11 02:43:25;;;;;;;1.70;0.70;;;;;;;8.67;90.19;99983.37;106036;1257;72720;-73
2023/04/11 02:45:52;;;;;;;2.70;1.00;;;;;;;8.66;89.94;99987.67;107034;1254;62077;-72
2023/04/11 02:48:31;;;;;;;2.20;0.90;;;;;;;8.67;89.74;99985.58;106080;1254;62155;-69
2023/04/11 02:51:01;;;;;;;1.60;0.70;;;;;;;8.67;89.44;99988.06;105844;1254;74274;-74
2023/04/11 02:53:27;;;;;;;3.10;1.00;;;;;;;8.67;89.34;99982.15;106407;1255;69668;-69
2023/04/11 02:55:54;;;;;;;2.00;0.80;;;;;;;8.65;89.35;99979.83;106191;1254;71185;-71
2023/04/11 02:58:20;;;;;;;2.10;1.10;;;;;;;8.65;89.40;99977.95;105977;1256;61906;-71
2023/04/11 03:00:49;;;;;;;2.80;0.80;;;;;;;8.66;89.10;99976.54;105972;1254;62067;-71
2023/04/11 03:03:16;;;;;;;3.00;1.20;;;;;;;8.65;88.86;99971.79;106485;1256;74350;-69
2023/04/11 03:05:43;;;;;;;2.00;1.00;;;;;;;8.64;89.10;99965.98;105787;1256;71024;-70
2023/04/11 03:08:10;;;;;;;3.30;1.00;;;;;;;8.66;89.11;99972.01;105897;1256;72519;-71
2023/04/11 03:10:36;;;;;;;2.90;0.90;;;;;;;8.65;89.00;99973.54;106742;1254;63202;-69
2023/04/11 03:13:03;;;;;;;3.70;1.10;;;;;;;8.62;88.57;99972.61;105830;1258;62043;-70
2023/04/11 03:15:31;;;;;;;3.70;1.10;;;;;;;8.63;88.78;99972.10;106158;1256;74531;-70
2023/04/11 03:17:58;;;;;;;3.30;1.10;;;;;;;8.63;88.56;99972.34;106123;1255;71219;-73
2023/04/11 03:20:25;;;;;;;2.00;1.00;;;;;;;8.62;88.55;99980.58;106791;1255;72745;-71
2023/04/11 03:22:52;;;;;;;3.60;1.30;;;;;;;8.63;88.54;99985.91;105960;1255;62079;-71
2023/04/11 03:25:18;;;;;;;2.70;1.00;;;;;;;8.66;88.80;99985.44;106115;1254;62550;-70
2023/04/11 03:27:45;;;;;;;3.10;0.90;;;;;;;8.67;88.50;99993.35;106288;1255;74170;-70
2023/04/11 03:30:13;;;;;;;3.50;1.10;;;;;;;8.69;88.86;99995.25;106606;1254;62045;-71
2023/04/11 03:32:39;;;;;;;3.30;1.10;;;;;;;8.71;88.65;99996.59;106278;1255;71161;-71
2023/04/11 03:35:06;;;;;;;3.50;1.50;;;;;;;8.73;88.68;99997.89;106310;1257;62172;-69
2023/04/11 03:37:33;;;;;;;3.50;1.50;;;;;;;8.76;88.73;100001.14;106744;1254;62159;-70
2023/04/11 03:40:00;;;;;;;3.90;1.30;;;;;;;8.77;89.12;100028.09;105925;1254;73968;-72
2023/04/11 03:42:27;;;;;;;3.80;1.00;;;;;;;8.68;84.80;100053.20;106080;1255;69059;-69
2023/04/11 03:44:53;;;;;;;4.50;1.60;;;;;;;8.45;80.74;100052.33;106116;1254;71640;-69
2023/04/11 03:47:20;;;;;;;5.40;2.10;;;;;;;8.24;80.06;100049.77;106681;1254;62021;-69
2023/04/11 03:49:46;;;;;;;5.60;2.30;;;;;;;8.00;80.27;100049.08;106055;1255;62047;-71
2023/04/11 03:52:14;;;;;;;8.50;4.30;;;;;;;7.83;81.16;100048.76;106189;1257;75492;-70
2023/04/11 03:54:40;;;;;;;9.10;2.80;;;;;;;7.70;81.81;100055.70;106817;1254;71179;-70
2023/04/11 03:57:08;;;;;;;9.40;3.60;;;;;;;7.57;81.94;100058.70;105961;1255;71360;-70
2023/04/11 03:59:35;;;;;;;4.70;1.20;;;;;;;7.49;82.39;100052.49;105828;1256;62065;-70
2023/04/11 04:02:01;;;;;;;4.60;1.00;;;;;;;7.43;82.36;100049.52;106409;1256;62128;-71
2023/04/11 04:04:29;;;;;;;3.00;0.80;;;;;;;7.39;82.74;100046.70;106202;1256;75533;-68
2023/04/11 04:06:56;;;;;;;6.10;1.00;;;;;;;7.33;83.18;100047.60;106598;1253;70298;-70
2023/04/11 04:09:23;;;;;;;6.10;1.50;;;;;;;7.32;83.44;100044.77;106193;1255;71619;-69
2023/04/11 04:11:50;;;;;;;4.80;1.20;;;;;;;7.31;83.63;100042.86;106176;1255;62167;-70
2023/04/11 04:14:17;;;;;;;5.60;1.30;;;;;;;7.33;83.88;100040.41;106713;1254;62160;-71
2023/04/11 04:16:44;;;;;;;5.70;1.30;;;;;;;7.32;84.28;100040.88;106051;1256;75434;-70
2023/04/11 04:19:10;;;;;;;6.50;1.50;;;;;;;7.34;84.63;100043.66;105865;1255;69402;-69
2023/04/11 04:21:37;;;;;;;5.90;1.60;;;;;;;7.35;85.17;100040.35;105868;1258;72676;-71
2023/04/11 04:24:05;;;;;;;7.20;2.00;;;;;;;7.37;85.20;100040.83;106674;1254;62111;-71
2023/04/11 04:26:31;;;;;;;5.30;1.60;;;;;;;7.40;85.96;100051.84;106356;1255;62060;-69
2023/04/11 04:29:03;;;;;;;6.10;1.70;;;;;;;7.42;87.16;100048.48;105907;1254;73447;-71
2023/04/11 04:31:32;;;;;;;8.20;1.70;;;;;;;7.38;88.97;100053.42;106759;1254;71363;-70
2023/04/11 04:34:09;;;;;;;7.10;1.90;;;;;;;7.34;90.10;100051.30;106018;1254;72707;-69
2023/04/11 04:36:48;;;;;;;8.90;2.10;;;;;;;7.31;91.30;100044.84;105815;1258;61981;-71
2023/04/11 04:39:18;;;;;;;6.70;2.10;;;;;;;7.29;91.72;100036.34;106199;1256;62171;-70
2023/04/11 04:41:48;;;;;;;8.60;2.30;;;;;;;7.27;91.65;100035.27;106686;1255;75521;-70
2023/04/11 04:44:15;;;;;;;7.90;2.20;;;;;;;7.26;91.26;100035.60;106129;1255;71342;-74
2023/04/11 04:46:52;;;;;;;7.00;1.90;;;;;;;7.23;90.93;100043.27;106108;1254;71810;-71
2023/04/11 04:49:19;;;;;;;7.90;1.60;;;;;;;7.23;90.64;100045.42;106150;1253;62042;-75
2023/04/11 04:51:46;;;;;;;5.20;1.60;;;;;;;7.23;89.90;100046.48;107043;1254;61911;-70
2023/04/11 04:54:14;;;;;;;7.00;2.10;;;;;;;7.25;89.68;100041.16;106042;1255;74371;-71
2023/04/11 04:56:42;;;;;;;6.50;1.90;;;;;;;7.28;89.42;100039.02;106514;1255;70039;-70
2023/04/11 04:59:13;;;;;;;8.50;2.10;;;;;;;7.31;89.38;100033.73;106364;1255;73907;-69
2023/04/11 05:01:40;;;;;;;6.50;2.00;;;;;;;7.34;89.72;100035.34;106170;1255;62256;-70
2023/04/11 05:04:07;;;;;;;7.70;1.90;;;;;;;7.36;89.90;100038.36;106209;1256;62097;-71
2023/04/11 05:06:34;;;;;;;6.30;2.10;;;;;;;7.37;90.15;100043.20;106097;1255;77246;-72
2023/04/11 05:09:01;;;;;;;8.00;2.70;;;;;;;7.36;90.44;100039.77;105912;1254;69953;-71
2023/04/11 05:11:28;;;;;;;8.60;2.40;;;;;;;7.34;90.94;100036.02;106760;1255;72431;-71
2023/04/11 05:13:55;;;;;;;9.80;3.30;;;;;;;7.32;90.90;100038.77;106981;1254;62208;-70
2023/04/11 05:16:22;;;;;;;10.00;2.70;;;;;;;7.31;91.50;100045.86;106333;1254;62080;-69
2023/04/11 05:18:49;;;;;;;10.60;3.10;;;;;;;7.31;91.66;100048.14;106043;1254;74285;-71
2023/04/11 05:21:16;;;;;;;10.50;3.00;;;;;;;7.35;91.80;100043.83;106280;1255;71080;-74
2023/04/11 05:23:43;;;;;;;11.60;2.40;;;;;;;7.40;91.40;100047.10;105937;1257;71131;-74
2023/04/11 05:26:10;;;;;;;9.70;2.90;;;;;;;7.44;91.67;100051.33;106080;1255;62069;-76
2023/04/11 05:28:37;;;;;;;6.20;2.20;;;;;;;7.49;91.63;100056.74;106055;1255;62173;-74
2023/04/11 05:31:05;;;;;;;8.30;2.30;;;;;;;7.55;91.39;100057.50;106685;1254;75222;-74
2023/04/11 05:33:32;;;;;;;10.10;3.00;;;;;;;7.61;91.16;100056.54;106755;1255;70276;-74
2023/04/11 05:35:59;;;;;;;9.80;2.60;;;;;;;7.65;90.98;100064.35;105645;1254;325615;-75
2023/04/11 05:38:26;;;;;;;8.70;2.60;;;;;;;7.69;91.37;100075.16;106217;1255;62491;-74
2023/04/11 05:40:53;;;;;;;10.80;3.10;;;;;;;7.71;91.78;100075.21;105971;1255;62261;-75
2023/04/11 05:43:20;;;;;;;7.20;3.10;;;;;;;7.73;92.00;100071.90;106026;1260;75614;-75
2023/04/11 05:45:49;;;;;;;8.20;2.80;;;;;;;7.72;92.32;100072.98;106113;1255;70976;-74
2023/04/11 05:48:18;;;;;;;7.30;2.80;;;;;;;7.73;92.33;100075.38;106614;1260;72343;-75
2023/04/11 05:50:45;;;;;;;8.40;2.80;;;;;;;7.76;92.91;100085.78;106441;1254;62102;-75
2023/04/11 05:53:12;;;;;;;8.40;2.60;;;;;;;7.73;94.26;100103.19;106764;1255;62093;-75
2023/04/11 05:55:39;;;;;;;8.30;2.70;;;;;;;7.55;94.60;100125.79;106298;1255;75316;-74
2023/04/11 05:58:08;;;;;;;6.80;1.60;;;;;;;7.17;94.97;100129.38;106741;1254;70444;-71
2023/04/11 06:00:38;;;;;;;4.00;1.30;;;;;;;6.90;94.55;100115.63;106206;1254;71250;-72
2023/04/11 06:03:06;;;;;;;4.10;1.20;;;;;;;6.72;95.06;100104.13;107009;1254;62131;-73
2023/04/11 06:05:34;;;;;;;4.70;1.40;;;;;;;6.59;95.50;100098.18;107615;1256;63579;-73
2023/04/11 06:08:02;;;;;;;5.80;1.50;;;;;;;6.49;95.87;100093.95;108807;1255;74234;-73
2023/04/11 06:10:30;;;;;;;5.70;1.50;;;;;;;6.46;96.15;100092.93;108673;1255;70100;-73
2023/04/11 06:12:57;;;;;;;5.40;1.70;;;;;;;6.44;96.54;100086.23;108786;1253;71794;-74
2023/04/11 06:15:25;;;;;;;3.90;1.50;;;;;;;6.47;96.66;100084.88;108379;1254;60454;-75
2023/04/11 06:17:52;;;;;;;4.70;1.50;;;;;;;6.53;96.72;100079.01;107312;1253;62105;-75
2023/04/11 06:20:21;;;;;;;3.60;1.30;;;;;;;6.61;95.98;100080.56;107465;1253;73321;-75
2023/04/11 06:22:50;;;;;;;6.90;1.80;;;;;;;6.68;95.95;100080.70;107568;1254;70526;-75
2023/04/11 06:25:19;;;;;;;5.80;1.60;;;;;;;6.74;95.51;100078.41;107490;1254;72560;-75
2023/04/11 06:27:47;;;;;;;4.50;1.30;;;;;;;6.78;95.21;100085.67;107266;1253;62728;-75
2023/04/11 06:30:14;;;;;;;5.70;1.70;;;;;;;6.79;94.84;100102.35;107289;1254;62113;-76
2023/04/11 06:32:41;;;;;;;7.20;1.50;;;;;;;6.82;95.37;100110.09;107585;1255;74342;-76
2023/04/11 06:35:08;;;;;;;4.50;1.40;;;;;;;6.90;94.96;100120.14;107651;1255;69631;-76
2023/04/11 06:37:35;;;;;;;2.70;1.10;;;;;;;7.00;93.95;100132.63;107086;1252;71485;-77
2023/04/11 06:40:04;;;;;;;4.40;1.50;;;;;;;7.06;92.13;100148.55;107690;1254;60240;-76
2023/04/11 06:42:31;;;;;;;5.00;1.30;;;;;;;7.10;93.46;100140.41;108836;1254;59805;-73
2023/04/11 06:44:59;;;;;;;2.90;1.00;;;;;;;7.03;94.09;100136.94;108813;1254;74577;-74
2023/04/11 06:47:26;;;;;;;4.20;1.20;;;;;;;6.90;93.81;100128.38;108540;1254;69858;-74
2023/04/11 06:49:53;;;;;;;4.00;0.90;;;;;;;6.77;93.87;100124.23;107996;1255;71719;-73
2023/04/11 06:52:29;;;;;;;3.90;1.20;;;;;;;6.69;94.41;100125.11;107136;1255;62133;-75
2023/04/11 06:54:59;;;;;;;4.10;1.00;;;;;;;6.63;95.11;100113.08;107431;1254;61988;-72
2023/04/11 06:57:26;;;;;;;6.00;1.10;;;;;;;6.57;95.32;100116.46;109078;1254;75521;-73
2023/04/11 06:59:52;;;;;;;3.40;1.10;;;;;;;6.56;95.94;100112.41;107790;1254;70915;-74
2023/04/11 07:02:20;;;;;;;2.80;1.10;;;;;;;6.58;96.43;100116.42;107259;1255;71121;-75
2023/04/11 07:04:47;;;;;;;2.60;1.10;;;;;;;6.64;96.74;100122.43;107883;1253;61982;-76
2023/04/11 07:07:14;;;;;;;4.70;1.40;;;;;;;6.70;96.81;100127.38;107187;1255;62016;-76
2023/04/11 07:09:42;;;;;;;3.60;1.10;;;;;;;6.78;97.29;100128.84;107414;1254;74345;-75
2023/04/11 07:12:09;;;;;;;5.00;1.30;;;;;;;6.84;97.25;100127.69;107419;1254;69674;-76
2023/04/11 07:14:44;;;;;;;4.00;1.30;;;;;;;6.90;96.82;100137.41;107113;1255;73094;-75
2023/04/11 07:17:11;;;;;;;3.00;1.00;;;;;;;6.93;96.34;100132.64;107140;1255;63229;-76
2023/04/11 07:19:38;;;;;;;4.50;1.20;;;;;;;6.96;95.60;100138.14;107688;1254;60177;-77
2023/04/11 07:22:05;;;;;;;3.20;1.30;;;;;;;7.01;95.24;100138.73;107161;1252;74056;-77
2023/04/11 07:24:32;;;;;;;4.10;1.40;;;;;;;7.05;95.45;100140.73;107615;1254;71261;-77
2023/04/11 07:27:00;;;;;;;2.40;1.30;;;;;;;7.11;95.00;100143.08;106773;1254;73462;-76
2023/04/11 07:29:27;;;;;;;5.40;1.10;;;;;;;7.15;93.97;100142.64;107165;1254;62004;-77
2023/04/11 07:31:54;;;;;;;2.70;1.00;;;;;;;7.23;93.71;100142.54;107503;1255;62021;-76
2023/04/11 07:34:22;;;;;;;5.10;1.40;;;;;;;7.32;93.48;100141.88;107287;1253;74890;-76
2023/04/11 07:36:49;;;;;;;4.40;1.50;;;;;;;7.38;93.23;100145.25;107665;1255;70714;-77
2023/04/11 07:39:16;;;;;;;4.00;1.20;;;;;;;7.46;92.57;100146.89;107935;1254;72711;-76
2023/04/11 07:41:43;;;;;;;5.20;1.40;;;;;;;7.55;92.37;100146.56;108265;1254;62076;-77
2023/04/11 07:44:10;;;;;;;3.70;1.30;;;;;;;7.64;92.12;100150.14;107991;1253;60774;-77
2023/04/11 07:46:37;;;;;;;5.50;1.40;;;;;;;7.74;91.90;100155.14;107220;1254;74872;-77
2023/04/11 07:49:04;;;;;;;4.40;1.20;;;;;;;7.88;91.46;100157.23;107037;1254;70489;-77
2023/04/11 07:51:31;;;;;;;5.60;1.60;;;;;;;7.99;91.19;100163.54;106784;1259;72186;-76
2023/04/11 07:53:59;;;;;;;5.90;2.10;;;;;;;8.09;90.58;100165.08;107204;1255;63292;-76
2023/04/11 07:56:26;;;;;;;6.90;1.80;;;;;;;8.14;89.60;100170.80;108129;1255;59823;-75
2023/04/11 07:58:53;;;;;;;5.70;1.80;;;;;;;8.22;88.68;100174.16;106846;1255;74116;-74
2023/04/11 08:01:24;;;;;;;5.90;1.40;;;;;;;8.28;88.30;100175.13;107569;1255;71637;-74
2023/04/11 08:03:55;;;;;;;6.60;1.90;;;;;;;8.39;88.02;100176.60;107370;1254;71321;-75
2023/04/11 08:06:23;;;;;;;5.50;1.60;;;;;;;8.51;87.31;100177.81;106690;1255;60851;-73
2023/04/11 08:08:50;;;;;;;7.80;1.80;;;;;;;8.64;87.04;100182.52;106962;1255;60010;-74
2023/04/11 08:11:17;;;;;;;5.60;1.80;;;;;;;8.75;86.96;100178.88;106740;1253;75516;-73
2023/04/11 08:13:44;;;;;;;5.00;1.90;;;;;;;8.88;86.27;100186.67;107422;1256;71854;-74
2023/04/11 08:16:13;;;;;;;5.80;1.80;;;;;;;8.99;85.28;100187.15;108092;1255;72728;-75
2023/04/11 08:18:41;;;;;;;6.70;2.20;;;;;;;8.99;83.41;100192.90;108966;1254;62524;-74
2023/04/11 08:21:10;;;;;;;6.20;2.00;;;;;;;9.07;84.09;100198.96;108540;1254;59929;-73
2023/04/11 08:23:38;;;;;;;8.10;1.70;;;;;;;9.16;83.91;100192.94;107919;1258;74228;-74
2023/04/11 08:26:06;;;;;;;4.80;1.80;;;;;;;9.27;83.32;100195.89;108698;1254;71268;-74
2023/04/11 08:28:33;;;;;;;6.10;1.80;;;;;;;9.41;82.61;100195.48;107781;1256;71487;-73
2023/04/11 08:31:02;;;;;;;5.60;1.90;;;;;;;9.46;81.70;100194.80;106337;1253;63742;-74
2023/04/11 08:33:29;;;;;;;5.30;1.90;;;;;;;9.54;81.56;100196.40;106304;1255;62013;-75
2023/04/11 08:35:56;;;;;;;4.80;1.50;;;;;;;9.68;80.11;100208.71;105963;1256;75200;-74
2023/04/11 08:38:23;;;;;;;5.70;1.80;;;;;;;9.66;78.98;100207.58;106044;1255;70817;-75
2023/04/11 08:40:50;;;;;;;5.40;1.70;;;;;;;9.68;78.96;100200.80;106265;1256;72712;-74
2023/04/11 08:43:18;;;;;;;4.90;1.60;;;;;;;9.66;79.04;100203.27;105946;1259;62144;-76
2023/04/11 08:45:44;;;;;;;6.60;2.20;;;;;;;9.75;79.12;100206.69;106623;1254;63466;-74
2023/04/11 08:48:11;;;;;;;5.10;1.50;;;;;;;9.78;78.36;100203.80;108593;1256;74046;-76
2023/04/11 08:50:41;;;;;;;6.40;1.90;;;;;;;9.79;77.33;100217.35;106798;1258;70203;-77
2023/04/11 08:53:08;;;;;;;7.70;1.60;;;;;;;9.75;77.96;100203.55;105834;1256;71081;-75
2023/04/11 08:55:44;;;;;;;4.90;1.40;;;;;;;9.75;76.50;100199.80;107024;1254;62198;-74
2023/04/11 08:58:11;;;;;;;5.30;1.50;;;;;;;9.98;77.50;100192.48;109015;1255;60220;-73
2023/04/11 09:00:38;;;;;;;7.00;2.20;;;;;;;10.03;75.47;100198.24;109000;1254;74039;-74
2023/04/11 09:03:07;;;;;;;4.70;1.60;;;;;;;10.04;75.06;100203.10;108911;1254;72570;-73
2023/04/11 09:05:39;;;;;;;4.70;1.30;;;;;;;9.88;73.77;100209.80;108814;1255;71507;-74
2023/04/11 09:08:07;;;;;;;5.70;1.50;;;;;;;9.83;73.80;100195.88;109057;1255;59964;-74
2023/04/11 09:10:36;;;;;;;4.50;1.60;;;;;;;9.88;74.55;100194.17;109065;1255;60110;-74
2023/04/11 09:13:22;;;;;;;3.60;1.20;;;;;;;10.02;74.54;100197.29;109067;1254;73953;-75
2023/04/11 09:16:09;;;;;;;4.60;1.40;;;;;;;10.17;72.65;100189.29;109082;1254;71555;-74
2023/04/11 09:18:45;;;;;;;5.10;1.40;;;;;;;10.53;74.04;100190.35;109062;1255;72615;-75
2023/04/11 09:21:15;;;;;;;6.30;1.30;;;;;;;10.87;71.38;100189.73;106965;1258;62077;-77
2023/04/11 09:23:42;;;;;;;5.30;1.10;;;;;;;11.08;71.58;100196.17;105484;1254;61989;-77
2023/04/11 09:26:11;;;;;;;4.50;1.00;;;;;;;11.08;69.12;100199.15;105594;1256;75506;-76
2023/04/11 09:28:43;;;;;;;4.60;1.20;;;;;;;10.98;68.19;100211.27;106281;1256;68997;-71
2023/04/11 09:31:13;;;;;;;4.40;1.20;;;;;;;11.00;67.79;100201.38;105709;1255;72492;-74
2023/04/11 09:33:52;;;;;;;6.10;1.30;;;;;;;11.05;67.12;100206.61;105426;1260;62365;-71
2023/04/11 09:36:20;;;;;;;3.90;1.00;;;;;;;11.04;65.70;100210.95;105570;1258;61975;-71
2023/04/11 09:38:47;;;;;;;6.00;1.20;;;;;;;11.05;65.86;100220.36;106460;1256;74377;-69
2023/04/11 09:41:15;;;;;;;4.90;1.20;;;;;;;11.10;66.03;100209.70;105524;1256;70886;-71
2023/04/11 09:43:51;;;;;;;3.50;1.30;;;;;;;11.15;66.17;100206.70;105449;1256;71533;-72
2023/04/11 09:46:19;;;;;;;3.20;1.10;;;;;;;11.14;65.01;100207.51;105424;1260;62219;-72
2023/04/11 09:48:47;;;;;;;5.50;1.10;;;;;;;11.08;64.63;100212.23;106399;1258;61991;-73
2023/04/11 09:51:15;;;;;;;2.60;1.10;;;;;;;11.10;63.51;100211.50;105377;1255;75787;-71
2023/04/11 09:54:02;;;;;;;4.20;1.00;;;;;;;11.31;63.81;100194.65;105404;1255;71299;-72
2023/04/11 09:56:30;;;;;;;3.10;0.90;;;;;;;11.52;63.74;100213.78;106312;1255;71139;-71
2023/04/11 09:58:58;;;;;;;4.70;1.20;;;;;;;11.53;61.85;100233.33;105510;1258;62004;-70
2023/04/11 10:01:25;;;;;;;2.90;0.80;;;;;;;11.49;63.17;100229.29;105790;1253;61990;-70
2023/04/11 10:03:54;;;;;;;2.50;1.00;;;;;;;11.14;64.63;100228.66;105803;1255;75468;-72
2023/04/11 10:06:46;;;;;;;3.00;0.90;;;;;;;10.56;67.25;100263.67;105996;1258;71633;-72
2023/04/11 10:09:15;;;;;;;2.50;1.10;;;;;;;10.10;70.17;100263.61;105453;1255;72717;-71
2023/04/11 10:11:43;;;;;;;4.20;1.30;;;;;;;9.84;71.30;100272.59;105407;1256;63319;-72
2023/04/11 10:14:43;;;;;;;2.20;0.60;;;;;;;9.67;69.51;100307.58;105869;1254;62094;-72
2023/04/11 10:17:17;;;;;;;2.00;0.60;;;;;;;9.29;66.54;100285.63;105370;1254;75504;-74
2023/04/11 10:19:55;;;;;;;3.30;0.90;;;;;;;9.07;68.71;100269.15;105545;1254;71242;-72
2023/04/11 10:22:40;;;;;;;2.30;0.80;;;;;;;8.94;69.47;100271.10;105455;1256;72696;-68
2023/04/11 10:25:21;;;;;;;3.00;0.90;;;;;;;8.98;69.37;100262.19;106390;1255;62069;-74
2023/04/11 10:27:49;;;;;;;2.80;0.90;;;;;;;8.97;69.12;100264.27;105431;1261;61988;-71
2023/04/11 10:30:16;;;;;;;3.80;1.00;;;;;;;9.09;69.29;100258.77;105495;1261;75362;-71
2023/04/11 10:33:08;;;;;;;3.40;1.00;;;;;;;9.32;69.99;100260.11;106458;1259;69913;-73
2023/04/11 10:35:54;;;;;;;4.60;1.10;;;;;;;9.66;69.76;100252.80;105593;1256;71463;-71
2023/04/11 10:38:42;;;;;;;3.70;1.40;;;;;;;10.07;69.93;100251.82;105444;1261;62075;-70
2023/04/11 10:41:30;;;;;;;3.10;1.10;;;;;;;10.39;68.75;100246.98;105499;1254;62194;-72
2023/04/11 10:44:17;;;;;;;3.40;1.50;;;;;;;10.64;67.00;100251.81;105976;1255;75228;-73
2023/04/11 10:46:46;;;;;;;3.00;1.10;;;;;;;10.79;64.55;100250.80;105711;1256;71243;-72
2023/04/11 10:49:33;;;;;;;4.20;1.10;;;;;;;11.01;63.90;100254.47;106428;1258;72504;-74
2023/04/11 10:52:15;;;;;;;5.00;1.10;;;;;;;11.29;60.52;100254.98;105599;1260;62058;-72
2023/04/11 10:54:44;;;;;;;4.70;1.10;;;;;;;11.41;60.61;100240.88;105757;1253;62167;-73
2023/04/11 10:57:12;;;;;;;3.40;0.80;;;;;;;11.64;60.23;100237.12;106322;1254;73270;-71
2023/04/11 10:59:38;;;;;;;3.00;0.80;;;;;;;11.73;54.21;100237.40;105828;1256;71019;-70
2023/04/11 11:02:05;;;;;;;3.10;0.90;;;;;;;11.81;53.72;100237.31;106440;1256;70673;-71
2023/04/11 11:04:33;;;;;;;2.30;0.90;;;;;;;11.99;53.06;100233.05;105957;1256;61969;-72
2023/04/11 11:07:03;;;;;;;5.40;1.10;;;;;;;12.07;50.37;100250.89;106184;1256;62069;-72
2023/04/11 11:09:32;;;;;;;4.00;1.00;;;;;;;12.11;50.57;100265.98;107105;1254;75483;-71
2023/04/11 11:12:06;;;;;;;5.70;1.10;;;;;;;12.38;51.67;100235.91;106578;1256;70884;-74
2023/04/11 11:14:33;;;;;;;3.40;0.90;;;;;;;12.61;50.68;100241.32;106013;1255;71458;-72
2023/04/11 11:17:01;;;;;;;4.10;0.90;;;;;;;12.78;47.65;100241.21;106158;1255;62075;-71
2023/04/11 11:19:32;;;;;;;4.30;1.00;;;;;;;12.85;48.82;100251.24;106293;1255;63090;-73
2023/04/11 11:22:02;;;;;;;3.10;0.70;;;;;;;12.87;47.80;100257.25;106031;1255;73960;-73
2023/04/11 11:24:30;;;;;;;3.80;1.00;;;;;;;12.90;48.23;100247.48;105936;1256;70593;-71
2023/04/11 11:26:57;;;;;;;4.70;1.10;;;;;;;12.89;47.77;100269.92;106719;1256;72701;-74
2023/04/11 11:29:33;;;;;;;4.70;1.10;;;;;;;12.67;47.06;100285.20;105756;1255;62352;-72
2023/04/11 11:32:02;;;;;;;3.70;1.00;;;;;;;12.40;47.12;100267.71;106474;1255;62095;-75